sensor_id;sensor_type;location;lat;lon;timestamp;temperature;humidity
11532;DHT22;5822;51.000;5.874;2023-03-01T00:01:23;4.10;99.90
11532;DHT22;5822;51.000;5.874;2023-03-01T00:03:50;4.10;99.90
11532;DHT22;5822;51.000;5.874;2023-03-01T00:06:16;4.20;99.90
11532;DHT22;5822;51.000;5.874;2023-03-01T00:08:42;4.40;99.90
11532;DHT22;5822;51.000;5.874;2023-03-01T00:11:28;4.30;99.90
11532;DHT22;5822;51.000;5.874;2023-03-01T00:13:56;4.10;99.90
11532;DHT22;5822;51.000;5.874;2023-03-01T00:16:25;4.10;99.90
11532;DHT22;5822;51.000;5.874;2023-03-01T00:18:51;4.20;99.90
11532;DHT22;5822;51.000;5.874;2023-03-01T00:21:20;4.30;99.90
11532;DHT22;5822;51.000;5.874;2023-03-01T00:23:45;4.40;99.90
11532;DHT22;5822;51.000;5.874;2023-03-01T00:26:13;4.40;99.90
11532;DHT22;5822;51.000;5.874;2023-03-01T00:28:39;4.50;99.90
11532;DHT22;5822;51.000;5.874;2023-03-01T00:31:14;4.50;99.90
11532;DHT22;5822;51.000;5.874;2023-03-01T00:33:40;4.50;99.90
11532;DHT22;5822;51.000;5.874;2023-03-01T00:36:06;4.40;99.90
11532;DHT22;5822;51.000;5.874;2023-03-01T00:38:37;4.20;99.90
11532;DHT22;5822;51.000;5.874;2023-03-01T00:41:05;4.10;99.90
11532;DHT22;5822;51.000;5.874;2023-03-01T00:43:30;4.00;99.90
11532;DHT22;5822;51.000;5.874;2023-03-01T00:46:01;4.00;99.90
11532;DHT22;5822;51.000;5.874;2023-03-01T00:48:27;3.80;99.90
11532;DHT22;5822;51.000;5.874;2023-03-01T00:50:52;3.70;99.90
11532;DHT22;5822;51.000;5.874;2023-03-01T00:53:18;3.70;99.90
11532;DHT22;5822;51.000;5.874;2023-03-01T00:55:43;3.60;99.90
11532;DHT22;5822;51.000;5.874;2023-03-01T00:58:09;3.70;99.90
11532;DHT22;5822;51.000;5.874;2023-03-01T01:00:35;3.70;99.90
11532;DHT22;5822;51.000;5.874;2023-03-01T01:03:01;4.00;99.90
11532;DHT22;5822;51.000;5.874;2023-03-01T01:05:26;4.00;99.90
11532;DHT22;5822;51.000;5.874;2023-03-01T01:07:52;4.10;99.90
11532;DHT22;5822;51.000;5.874;2023-03-01T01:10:18;4.00;99.90
11532;DHT22;5822;51.000;5.874;2023-03-01T01:12:45;3.90;99.90
11532;DHT22;5822;51.000;5.874;2023-03-01T01:15:11;3.90;99.90
11532;DHT22;5822;51.000;5.874;2023-03-01T01:17:39;3.80;99.90
11532;DHT22;5822;51.000;5.874;2023-03-01T01:20:05;3.60;99.90
11532;DHT22;5822;51.000;5.874;2023-03-01T01:22:31;3.60;99.90
11532;DHT22;5822;51.000;5.874;2023-03-01T01:24:56;3.70;99.90
11532;DHT22;5822;51.000;5.874;2023-03-01T01:27:22;3.70;99.90
11532;DHT22;5822;51.000;5.874;2023-03-01T01:29:48;3.70;99.90
11532;DHT22;5822;51.000;5.874;2023-03-01T01:32:13;3.90;99.90
11532;DHT22;5822;51.000;5.874;2023-03-01T01:34:39;3.80;99.90
11532;DHT22;5822;51.000;5.874;2023-03-01T01:37:05;3.70;99.90
11532;DHT22;5822;51.000;5.874;2023-03-01T01:39:34;3.70;99.90
11532;DHT22;5822;51.000;5.874;2023-03-01T01:42:00;3.60;99.90
11532;DHT22;5822;51.000;5.874;2023-03-01T01:44:28;3.60;99.90
11532;DHT22;5822;51.000;5.874;2023-03-01T01:47:18;3.50;99.90
11532;DHT22;5822;51.000;5.874;2023-03-01T01:49:52;3.40;99.90
11532;DHT22;5822;51.000;5.874;2023-03-01T01:52:23;3.30;99.90
11532;DHT22;5822;51.000;5.874;2023-03-01T01:55:00;3.40;99.90
11532;DHT22;5822;51.000;5.874;2023-03-01T01:57:40;3.40;99.90
11532;DHT22;5822;51.000;5.874;2023-03-01T02:00:13;3.40;99.90
11532;DHT22;5822;51.000;5.874;2023-03-01T02:02:40;3.30;99.90
11532;DHT22;5822;51.000;5.874;2023-03-01T02:05:11;3.30;99.90
11532;DHT22;5822;51.000;5.874;2023-03-01T02:07:39;3.30;99.90
11532;DHT22;5822;51.000;5.874;2023-03-01T02:10:05;3.30;99.90
11532;DHT22;5822;51.000;5.874;2023-03-01T02:12:32;3.20;99.90
11532;DHT22;5822;51.000;5.874;2023-03-01T02:14:58;3.20;99.90
11532;DHT22;5822;51.000;5.874;2023-03-01T02:17:24;3.20;99.90
11532;DHT22;5822;51.000;5.874;2023-03-01T02:22:47;3.10;99.90
11532;DHT22;5822;51.000;5.874;2023-03-01T02:25:44;3.10;99.90
11532;DHT22;5822;51.000;5.874;2023-03-01T02:30:44;3.00;99.90
11532;DHT22;5822;51.000;5.874;2023-03-01T02:33:29;3.00;99.90
11532;DHT22;5822;51.000;5.874;2023-03-01T02:36:00;3.10;99.90
11532;DHT22;5822;51.000;5.874;2023-03-01T02:38:28;3.20;99.90
11532;DHT22;5822;51.000;5.874;2023-03-01T02:40:54;3.20;99.90
11532;DHT22;5822;51.000;5.874;2023-03-01T02:43:25;3.30;99.90
11532;DHT22;5822;51.000;5.874;2023-03-01T02:45:53;3.20;99.90
11532;DHT22;5822;51.000;5.874;2023-03-01T02:48:22;3.10;99.90
11532;DHT22;5822;51.000;5.874;2023-03-01T02:53:49;3.00;99.90
11532;DHT22;5822;51.000;5.874;2023-03-01T02:56:18;3.00;99.90
11532;DHT22;5822;51.000;5.874;2023-03-01T02:58:44;3.00;99.90
11532;DHT22;5822;51.000;5.874;2023-03-01T03:01:14;3.00;99.90
11532;DHT22;5822;51.000;5.874;2023-03-01T03:03:41;3.00;99.90
11532;DHT22;5822;51.000;5.874;2023-03-01T03:06:09;2.90;99.90
11532;DHT22;5822;51.000;5.874;2023-03-01T03:08:34;2.90;99.90
11532;DHT22;5822;51.000;5.874;2023-03-01T03:11:00;3.10;99.90
11532;DHT22;5822;51.000;5.874;2023-03-01T03:13:26;3.00;99.90
11532;DHT22;5822;51.000;5.874;2023-03-01T03:15:55;2.90;99.90
11532;DHT22;5822;51.000;5.874;2023-03-01T03:18:21;2.80;99.90
11532;DHT22;5822;51.000;5.874;2023-03-01T03:20:48;2.80;99.90
11532;DHT22;5822;51.000;5.874;2023-03-01T03:23:18;2.70;99.90
11532;DHT22;5822;51.000;5.874;2023-03-01T03:25:44;2.70;99.90
11532;DHT22;5822;51.000;5.874;2023-03-01T03:28:10;2.80;99.90
11532;DHT22;5822;51.000;5.874;2023-03-01T03:30:39;2.80;99.90
11532;DHT22;5822;51.000;5.874;2023-03-01T03:33:05;2.90;99.90
11532;DHT22;5822;51.000;5.874;2023-03-01T03:35:34;2.80;99.90
11532;DHT22;5822;51.000;5.874;2023-03-01T03:38:03;2.80;99.90
11532;DHT22;5822;51.000;5.874;2023-03-01T03:40:37;2.80;99.90
11532;DHT22;5822;51.000;5.874;2023-03-01T03:43:06;2.70;99.90
11532;DHT22;5822;51.000;5.874;2023-03-01T03:45:32;2.70;99.90
11532;DHT22;5822;51.000;5.874;2023-03-01T03:48:04;3.00;99.90
11532;DHT22;5822;51.000;5.874;2023-03-01T03:50:30;3.10;99.90
11532;DHT22;5822;51.000;5.874;2023-03-01T03:52:56;3.10;99.90
11532;DHT22;5822;51.000;5.874;2023-03-01T03:55:21;2.90;99.90
11532;DHT22;5822;51.000;5.874;2023-03-01T03:57:48;2.70;99.90
11532;DHT22;5822;51.000;5.874;2023-03-01T04:00:21;2.60;99.90
11532;DHT22;5822;51.000;5.874;2023-03-01T04:02:47;2.60;99.90
11532;DHT22;5822;51.000;5.874;2023-03-01T04:05:16;2.60;99.90
11532;DHT22;5822;51.000;5.874;2023-03-01T04:07:42;2.70;99.90
11532;DHT22;5822;51.000;5.874;2023-03-01T04:10:14;2.90;99.90
11532;DHT22;5822;51.000;5.874;2023-03-01T04:12:40;2.80;99.90
11532;DHT22;5822;51.000;5.874;2023-03-01T04:15:07;2.80;99.90
11532;DHT22;5822;51.000;5.874;2023-03-01T04:17:47;3.00;99.90
11532;DHT22;5822;51.000;5.874;2023-03-01T04:20:16;3.10;99.90
11532;DHT22;5822;51.000;5.874;2023-03-01T04:23:17;3.10;99.90
11532;DHT22;5822;51.000;5.874;2023-03-01T04:25:52;3.10;99.90
11532;DHT22;5822;51.000;5.874;2023-03-01T04:31:18;2.80;99.90
11532;DHT22;5822;51.000;5.874;2023-03-01T04:33:52;2.70;99.90
11532;DHT22;5822;51.000;5.874;2023-03-01T04:36:21;2.60;99.90
11532;DHT22;5822;51.000;5.874;2023-03-01T04:38:46;2.70;99.90
11532;DHT22;5822;51.000;5.874;2023-03-01T04:41:13;2.90;99.90
11532;DHT22;5822;51.000;5.874;2023-03-01T04:43:39;2.70;99.90
11532;DHT22;5822;51.000;5.874;2023-03-01T04:46:07;2.60;99.90
11532;DHT22;5822;51.000;5.874;2023-03-01T04:48:35;2.70;99.90
11532;DHT22;5822;51.000;5.874;2023-03-01T04:51:01;2.90;99.90
11532;DHT22;5822;51.000;5.874;2023-03-01T04:53:28;2.90;99.90
11532;DHT22;5822;51.000;5.874;2023-03-01T04:55:54;3.00;99.90
11532;DHT22;5822;51.000;5.874;2023-03-01T04:58:25;2.70;99.90
11532;DHT22;5822;51.000;5.874;2023-03-01T05:00:51;2.60;99.90
11532;DHT22;5822;51.000;5.874;2023-03-01T05:03:17;2.50;99.90
11532;DHT22;5822;51.000;5.874;2023-03-01T05:05:45;2.40;99.90
11532;DHT22;5822;51.000;5.874;2023-03-01T05:08:12;2.30;99.90
11532;DHT22;5822;51.000;5.874;2023-03-01T05:10:51;2.30;99.90
11532;DHT22;5822;51.000;5.874;2023-03-01T05:13:18;2.30;99.90
11532;DHT22;5822;51.000;5.874;2023-03-01T05:15:58;2.30;99.90
11532;DHT22;5822;51.000;5.874;2023-03-01T05:18:25;2.30;99.90
11532;DHT22;5822;51.000;5.874;2023-03-01T05:20:52;2.40;99.90
11532;DHT22;5822;51.000;5.874;2023-03-01T05:23:18;2.50;99.90
11532;DHT22;5822;51.000;5.874;2023-03-01T05:25:44;2.60;99.90
11532;DHT22;5822;51.000;5.874;2023-03-01T05:28:13;2.80;99.90
11532;DHT22;5822;51.000;5.874;2023-03-01T05:30:39;2.50;99.90
11532;DHT22;5822;51.000;5.874;2023-03-01T05:33:05;2.50;99.90
11532;DHT22;5822;51.000;5.874;2023-03-01T05:35:35;2.60;99.90
11532;DHT22;5822;51.000;5.874;2023-03-01T05:38:02;2.70;99.90
11532;DHT22;5822;51.000;5.874;2023-03-01T05:40:27;2.70;99.90
11532;DHT22;5822;51.000;5.874;2023-03-01T05:42:56;2.50;99.90
11532;DHT22;5822;51.000;5.874;2023-03-01T05:45:23;2.60;99.90
11532;DHT22;5822;51.000;5.874;2023-03-01T05:47:51;2.50;99.90
11532;DHT22;5822;51.000;5.874;2023-03-01T05:50:25;2.40;99.90
11532;DHT22;5822;51.000;5.874;2023-03-01T05:53:02;2.40;99.90
11532;DHT22;5822;51.000;5.874;2023-03-01T05:55:30;2.30;99.90
11532;DHT22;5822;51.000;5.874;2023-03-01T05:57:58;2.30;99.90
11532;DHT22;5822;51.000;5.874;2023-03-01T06:00:24;2.40;99.90
11532;DHT22;5822;51.000;5.874;2023-03-01T06:02:50;2.30;99.90
11532;DHT22;5822;51.000;5.874;2023-03-01T06:05:17;2.20;99.90
11532;DHT22;5822;51.000;5.874;2023-03-01T06:07:43;2.10;99.90
11532;DHT22;5822;51.000;5.874;2023-03-01T06:10:10;2.00;99.90
11532;DHT22;5822;51.000;5.874;2023-03-01T06:12:37;1.90;99.90
11532;DHT22;5822;51.000;5.874;2023-03-01T06:15:04;2.00;99.90
11532;DHT22;5822;51.000;5.874;2023-03-01T06:17:33;1.90;99.90
11532;DHT22;5822;51.000;5.874;2023-03-01T06:20:36;1.90;99.90
11532;DHT22;5822;51.000;5.874;2023-03-01T06:22:55;2.10;99.90
11532;DHT22;5822;51.000;5.874;2023-03-01T06:25:22;2.00;99.90
11532;DHT22;5822;51.000;5.874;2023-03-01T06:27:48;2.10;99.90
11532;DHT22;5822;51.000;5.874;2023-03-01T06:30:16;2.20;99.90
11532;DHT22;5822;51.000;5.874;2023-03-01T06:32:42;2.40;99.90
11532;DHT22;5822;51.000;5.874;2023-03-01T06:35:10;2.30;99.90
11532;DHT22;5822;51.000;5.874;2023-03-01T06:37:35;2.30;99.90
11532;DHT22;5822;51.000;5.874;2023-03-01T06:40:03;2.10;99.90
11532;DHT22;5822;51.000;5.874;2023-03-01T06:42:42;2.10;99.90
11532;DHT22;5822;51.000;5.874;2023-03-01T06:45:08;2.20;99.90
11532;DHT22;5822;51.000;5.874;2023-03-01T06:47:34;2.20;99.90
11532;DHT22;5822;51.000;5.874;2023-03-01T06:50:01;2.30;99.90
11532;DHT22;5822;51.000;5.874;2023-03-01T06:52:27;2.20;99.90
11532;DHT22;5822;51.000;5.874;2023-03-01T06:54:53;2.10;99.90
11532;DHT22;5822;51.000;5.874;2023-03-01T06:57:18;2.20;99.90
11532;DHT22;5822;51.000;5.874;2023-03-01T06:59:44;2.20;99.90
11532;DHT22;5822;51.000;5.874;2023-03-01T07:02:11;2.00;99.90
11532;DHT22;5822;51.000;5.874;2023-03-01T07:04:37;2.00;99.90
11532;DHT22;5822;51.000;5.874;2023-03-01T07:07:03;2.00;99.90
11532;DHT22;5822;51.000;5.874;2023-03-01T07:09:28;2.10;99.90
11532;DHT22;5822;51.000;5.874;2023-03-01T07:11:54;2.20;99.90
11532;DHT22;5822;51.000;5.874;2023-03-01T07:14:20;2.40;99.90
11532;DHT22;5822;51.000;5.874;2023-03-01T07:16:46;2.40;99.90
11532;DHT22;5822;51.000;5.874;2023-03-01T07:19:11;2.40;99.90
11532;DHT22;5822;51.000;5.874;2023-03-01T07:21:37;2.50;99.90
11532;DHT22;5822;51.000;5.874;2023-03-01T07:24:06;2.70;99.90
11532;DHT22;5822;51.000;5.874;2023-03-01T07:26:32;2.90;99.90
11532;DHT22;5822;51.000;5.874;2023-03-01T07:29:03;2.90;99.90
11532;DHT22;5822;51.000;5.874;2023-03-01T07:31:29;3.00;99.90
11532;DHT22;5822;51.000;5.874;2023-03-01T07:33:55;3.00;99.90
11532;DHT22;5822;51.000;5.874;2023-03-01T07:36:22;3.10;99.90
11532;DHT22;5822;51.000;5.874;2023-03-01T07:38:51;3.10;99.90
11532;DHT22;5822;51.000;5.874;2023-03-01T07:41:17;3.10;99.90
11532;DHT22;5822;51.000;5.874;2023-03-01T07:43:43;3.20;99.90
11532;DHT22;5822;51.000;5.874;2023-03-01T07:46:08;3.30;99.90
11532;DHT22;5822;51.000;5.874;2023-03-01T07:48:34;3.30;99.90
11532;DHT22;5822;51.000;5.874;2023-03-01T07:51:04;3.30;99.90
11532;DHT22;5822;51.000;5.874;2023-03-01T07:53:31;3.40;99.90
11532;DHT22;5822;51.000;5.874;2023-03-01T07:56:10;3.40;99.90
11532;DHT22;5822;51.000;5.874;2023-03-01T07:58:38;3.40;99.90
11532;DHT22;5822;51.000;5.874;2023-03-01T08:01:06;3.50;99.90
11532;DHT22;5822;51.000;5.874;2023-03-01T08:03:32;3.50;99.90
11532;DHT22;5822;51.000;5.874;2023-03-01T08:06:03;3.50;99.90
11532;DHT22;5822;51.000;5.874;2023-03-01T08:08:29;3.60;99.90
11532;DHT22;5822;51.000;5.874;2023-03-01T08:10:59;3.60;99.90
11532;DHT22;5822;51.000;5.874;2023-03-01T08:13:25;3.70;99.90
11532;DHT22;5822;51.000;5.874;2023-03-01T08:15:51;3.70;99.90
11532;DHT22;5822;51.000;5.874;2023-03-01T08:18:18;3.70;99.90
11532;DHT22;5822;51.000;5.874;2023-03-01T08:20:44;3.80;99.90
11532;DHT22;5822;51.000;5.874;2023-03-01T08:23:10;3.80;99.90
11532;DHT22;5822;51.000;5.874;2023-03-01T08:25:36;3.80;99.90
11532;DHT22;5822;51.000;5.874;2023-03-01T08:28:02;3.80;99.90
11532;DHT22;5822;51.000;5.874;2023-03-01T08:30:27;3.80;99.90
11532;DHT22;5822;51.000;5.874;2023-03-01T08:32:55;3.80;99.90
11532;DHT22;5822;51.000;5.874;2023-03-01T08:35:22;3.80;99.90
11532;DHT22;5822;51.000;5.874;2023-03-01T08:37:47;3.90;99.90
11532;DHT22;5822;51.000;5.874;2023-03-01T08:40:13;3.90;99.90
11532;DHT22;5822;51.000;5.874;2023-03-01T08:42:42;3.90;99.90
11532;DHT22;5822;51.000;5.874;2023-03-01T08:45:13;4.00;99.90
11532;DHT22;5822;51.000;5.874;2023-03-01T08:47:43;4.00;99.90
11532;DHT22;5822;51.000;5.874;2023-03-01T08:50:10;4.00;99.90
11532;DHT22;5822;51.000;5.874;2023-03-01T08:52:35;4.00;99.90
11532;DHT22;5822;51.000;5.874;2023-03-01T08:55:01;4.00;99.90
11532;DHT22;5822;51.000;5.874;2023-03-01T08:57:27;4.10;99.90
11532;DHT22;5822;51.000;5.874;2023-03-01T08:59:52;4.10;99.90
11532;DHT22;5822;51.000;5.874;2023-03-01T09:02:18;4.20;99.90
11532;DHT22;5822;51.000;5.874;2023-03-01T09:04:44;4.20;99.90
11532;DHT22;5822;51.000;5.874;2023-03-01T09:07:10;4.30;99.90
11532;DHT22;5822;51.000;5.874;2023-03-01T09:09:36;4.30;99.90
11532;DHT22;5822;51.000;5.874;2023-03-01T09:12:03;4.40;99.90
11532;DHT22;5822;51.000;5.874;2023-03-01T09:14:29;4.40;99.90
11532;DHT22;5822;51.000;5.874;2023-03-01T09:16:55;4.50;99.90
11532;DHT22;5822;51.000;5.874;2023-03-01T09:19:20;4.50;99.90
11532;DHT22;5822;51.000;5.874;2023-03-01T09:21:46;4.50;99.90
11532;DHT22;5822;51.000;5.874;2023-03-01T09:24:20;4.60;99.90
11532;DHT22;5822;51.000;5.874;2023-03-01T09:26:46;4.50;99.90
11532;DHT22;5822;51.000;5.874;2023-03-01T09:29:13;4.70;99.90
11532;DHT22;5822;51.000;5.874;2023-03-01T09:31:40;4.70;99.90
11532;DHT22;5822;51.000;5.874;2023-03-01T09:34:06;4.70;99.90
11532;DHT22;5822;51.000;5.874;2023-03-01T09:36:33;4.80;99.90
11532;DHT22;5822;51.000;5.874;2023-03-01T09:38:58;4.80;99.90
11532;DHT22;5822;51.000;5.874;2023-03-01T09:44:27;4.90;99.90
11532;DHT22;5822;51.000;5.874;2023-03-01T09:46:54;4.90;99.90
11532;DHT22;5822;51.000;5.874;2023-03-01T09:49:25;4.90;99.90
11532;DHT22;5822;51.000;5.874;2023-03-01T09:54:30;5.10;99.90
11532;DHT22;5822;51.000;5.874;2023-03-01T10:05:34;5.50;99.90
11532;DHT22;5822;51.000;5.874;2023-03-01T10:10:41;5.60;99.90
11532;DHT22;5822;51.000;5.874;2023-03-01T10:16:16;5.80;99.90
11532;DHT22;5822;51.000;5.874;2023-03-01T10:18:45;5.80;99.90
11532;DHT22;5822;51.000;5.874;2023-03-01T10:21:18;5.80;99.90
11532;DHT22;5822;51.000;5.874;2023-03-01T10:23:46;5.80;99.90
11532;DHT22;5822;51.000;5.874;2023-03-01T10:26:33;5.80;99.90
11532;DHT22;5822;51.000;5.874;2023-03-01T10:29:10;5.80;99.90
11532;DHT22;5822;51.000;5.874;2023-03-01T10:31:50;5.90;99.90
11532;DHT22;5822;51.000;5.874;2023-03-01T10:34:29;5.90;99.90
11532;DHT22;5822;51.000;5.874;2023-03-01T10:39:37;5.80;99.90
11532;DHT22;5822;51.000;5.874;2023-03-01T10:42:30;5.80;99.90
11532;DHT22;5822;51.000;5.874;2023-03-01T10:44:56;5.90;99.90
11532;DHT22;5822;51.000;5.874;2023-03-01T10:47:24;6.00;99.90
11532;DHT22;5822;51.000;5.874;2023-03-01T10:50:04;6.10;99.90
11532;DHT22;5822;51.000;5.874;2023-03-01T10:52:34;6.00;99.90
11532;DHT22;5822;51.000;5.874;2023-03-01T10:57:46;6.10;99.90
11532;DHT22;5822;51.000;5.874;2023-03-01T11:00:24;6.20;99.90
11532;DHT22;5822;51.000;5.874;2023-03-01T11:03:03;6.10;99.90
11532;DHT22;5822;51.000;5.874;2023-03-01T11:05:34;6.20;99.90
11532;DHT22;5822;51.000;5.874;2023-03-01T11:08:01;6.20;99.90
11532;DHT22;5822;51.000;5.874;2023-03-01T11:10:35;6.20;99.90
11532;DHT22;5822;51.000;5.874;2023-03-01T11:13:17;6.20;99.90
11532;DHT22;5822;51.000;5.874;2023-03-01T11:15:58;6.20;99.90
11532;DHT22;5822;51.000;5.874;2023-03-01T11:18:25;6.20;99.90
11532;DHT22;5822;51.000;5.874;2023-03-01T11:20:53;6.30;99.90
11532;DHT22;5822;51.000;5.874;2023-03-01T11:23:20;6.30;99.90
11532;DHT22;5822;51.000;5.874;2023-03-01T11:25:59;6.50;99.90
11532;DHT22;5822;51.000;5.874;2023-03-01T11:28:27;6.50;99.90
11532;DHT22;5822;51.000;5.874;2023-03-01T11:31:06;6.60;99.90
11532;DHT22;5822;51.000;5.874;2023-03-01T11:36:16;6.50;99.90
11532;DHT22;5822;51.000;5.874;2023-03-01T11:38:44;6.60;99.90
11532;DHT22;5822;51.000;5.874;2023-03-01T11:41:31;6.60;99.90
11532;DHT22;5822;51.000;5.874;2023-03-01T11:44:15;6.60;99.90
11532;DHT22;5822;51.000;5.874;2023-03-01T11:46:57;6.60;99.90
11532;DHT22;5822;51.000;5.874;2023-03-01T12:02:36;6.90;99.90
11532;DHT22;5822;51.000;5.874;2023-03-01T12:15:50;6.90;99.90
11532;DHT22;5822;51.000;5.874;2023-03-01T12:19:23;6.90;99.90
11532;DHT22;5822;51.000;5.874;2023-03-01T12:21:44;6.90;99.90
11532;DHT22;5822;51.000;5.874;2023-03-01T12:24:28;6.90;99.90
11532;DHT22;5822;51.000;5.874;2023-03-01T12:30:02;7.00;99.90
11532;DHT22;5822;51.000;5.874;2023-03-01T12:35:41;7.10;99.90
11532;DHT22;5822;51.000;5.874;2023-03-01T12:41:33;7.20;99.90
11532;DHT22;5822;51.000;5.874;2023-03-01T12:47:10;7.30;99.90
11532;DHT22;5822;51.000;5.874;2023-03-01T12:49:41;7.30;99.90
11532;DHT22;5822;51.000;5.874;2023-03-01T12:54:49;7.30;99.90
11532;DHT22;5822;51.000;5.874;2023-03-01T12:57:24;7.40;99.90
11532;DHT22;5822;51.000;5.874;2023-03-01T13:00:11;7.30;99.90
11532;DHT22;5822;51.000;5.874;2023-03-01T13:02:53;7.40;99.90
11532;DHT22;5822;51.000;5.874;2023-03-01T13:05:26;7.40;99.90
11532;DHT22;5822;51.000;5.874;2023-03-01T13:08:17;7.40;99.90
11532;DHT22;5822;51.000;5.874;2023-03-01T13:11:03;7.50;99.90
11532;DHT22;5822;51.000;5.874;2023-03-01T13:13:30;7.50;99.90
11532;DHT22;5822;51.000;5.874;2023-03-01T13:15:56;7.50;99.90
11532;DHT22;5822;51.000;5.874;2023-03-01T13:20:56;7.60;99.90
11532;DHT22;5822;51.000;5.874;2023-03-01T13:23:24;7.60;99.90
11532;DHT22;5822;51.000;5.874;2023-03-01T13:26:16;7.60;99.90
11532;DHT22;5822;51.000;5.874;2023-03-01T13:28:47;7.60;99.90
11532;DHT22;5822;51.000;5.874;2023-03-01T13:33:49;7.60;99.90
11532;DHT22;5822;51.000;5.874;2023-03-01T13:38:59;7.60;99.90
11532;DHT22;5822;51.000;5.874;2023-03-01T13:44:32;7.70;99.90
11532;DHT22;5822;51.000;5.874;2023-03-01T13:47:14;7.70;99.90
11532;DHT22;5822;51.000;5.874;2023-03-01T13:52:38;7.70;99.90
11532;DHT22;5822;51.000;5.874;2023-03-01T13:58:00;7.80;99.90
11532;DHT22;5822;51.000;5.874;2023-03-01T14:00:36;7.90;99.90
11532;DHT22;5822;51.000;5.874;2023-03-01T14:03:13;8.00;99.90
11532;DHT22;5822;51.000;5.874;2023-03-01T14:05:40;8.10;99.90
11532;DHT22;5822;51.000;5.874;2023-03-01T14:08:22;8.20;99.90
11532;DHT22;5822;51.000;5.874;2023-03-01T14:11:05;8.30;99.90
11532;DHT22;5822;51.000;5.874;2023-03-01T14:13:36;8.40;99.90
11532;DHT22;5822;51.000;5.874;2023-03-01T14:19:04;8.60;99.90
11532;DHT22;5822;51.000;5.874;2023-03-01T14:21:33;8.70;99.90
11532;DHT22;5822;51.000;5.874;2023-03-01T14:23:58;8.70;99.90
11532;DHT22;5822;51.000;5.874;2023-03-01T14:26:24;8.80;99.90
11532;DHT22;5822;51.000;5.874;2023-03-01T14:28:51;8.90;99.90
11532;DHT22;5822;51.000;5.874;2023-03-01T14:31:38;9.00;99.90
11532;DHT22;5822;51.000;5.874;2023-03-01T14:34:05;9.00;99.90
11532;DHT22;5822;51.000;5.874;2023-03-01T14:36:33;9.10;99.90
11532;DHT22;5822;51.000;5.874;2023-03-01T14:38:59;9.10;99.90
11532;DHT22;5822;51.000;5.874;2023-03-01T14:41:33;9.20;99.90
11532;DHT22;5822;51.000;5.874;2023-03-01T14:44:02;9.30;99.90
11532;DHT22;5822;51.000;5.874;2023-03-01T14:46:30;9.40;99.90
11532;DHT22;5822;51.000;5.874;2023-03-01T14:51:49;9.40;99.90
11532;DHT22;5822;51.000;5.874;2023-03-01T14:54:45;9.50;99.90
11532;DHT22;5822;51.000;5.874;2023-03-01T14:57:22;9.60;99.90
11532;DHT22;5822;51.000;5.874;2023-03-01T14:59:49;9.60;99.90
11532;DHT22;5822;51.000;5.874;2023-03-01T15:02:18;9.60;99.90
11532;DHT22;5822;51.000;5.874;2023-03-01T15:05:02;9.60;99.90
11532;DHT22;5822;51.000;5.874;2023-03-01T15:07:35;9.60;99.90
11532;DHT22;5822;51.000;5.874;2023-03-01T15:10:05;9.70;99.90
11532;DHT22;5822;51.000;5.874;2023-03-01T15:12:35;9.70;99.90
11532;DHT22;5822;51.000;5.874;2023-03-01T15:15:20;9.80;99.90
11532;DHT22;5822;51.000;5.874;2023-03-01T15:17:52;9.80;99.90
11532;DHT22;5822;51.000;5.874;2023-03-01T15:20:20;9.90;99.90
11532;DHT22;5822;51.000;5.874;2023-03-01T15:22:53;9.90;99.90
11532;DHT22;5822;51.000;5.874;2023-03-01T15:25:25;9.90;99.90
11532;DHT22;5822;51.000;5.874;2023-03-01T15:27:53;9.90;99.90
11532;DHT22;5822;51.000;5.874;2023-03-01T15:30:23;9.80;99.90
11532;DHT22;5822;51.000;5.874;2023-03-01T15:35:51;9.70;99.90
11532;DHT22;5822;51.000;5.874;2023-03-01T15:38:50;9.60;99.90
11532;DHT22;5822;51.000;5.874;2023-03-01T15:43:51;9.50;99.90
11532;DHT22;5822;51.000;5.874;2023-03-01T15:46:31;9.50;99.90
11532;DHT22;5822;51.000;5.874;2023-03-01T15:49:02;9.40;99.90
11532;DHT22;5822;51.000;5.874;2023-03-01T15:51:35;9.30;99.90
11532;DHT22;5822;51.000;5.874;2023-03-01T15:54:10;9.30;99.90
11532;DHT22;5822;51.000;5.874;2023-03-01T15:56:39;9.20;99.90
11532;DHT22;5822;51.000;5.874;2023-03-01T15:59:04;9.20;99.90
11532;DHT22;5822;51.000;5.874;2023-03-01T16:01:32;9.20;99.90
11532;DHT22;5822;51.000;5.874;2023-03-01T16:04:00;9.20;99.90
11532;DHT22;5822;51.000;5.874;2023-03-01T16:06:25;9.10;99.90
11532;DHT22;5822;51.000;5.874;2023-03-01T16:08:51;9.10;99.90
11532;DHT22;5822;51.000;5.874;2023-03-01T16:11:19;9.00;99.90
11532;DHT22;5822;51.000;5.874;2023-03-01T16:13:45;9.00;99.90
11532;DHT22;5822;51.000;5.874;2023-03-01T16:16:12;9.10;99.90
11532;DHT22;5822;51.000;5.874;2023-03-01T16:18:40;9.00;99.90
11532;DHT22;5822;51.000;5.874;2023-03-01T16:21:06;9.10;99.90
11532;DHT22;5822;51.000;5.874;2023-03-01T16:23:32;9.00;99.90
11532;DHT22;5822;51.000;5.874;2023-03-01T16:26:01;9.00;99.90
11532;DHT22;5822;51.000;5.874;2023-03-01T16:28:26;9.00;99.90
11532;DHT22;5822;51.000;5.874;2023-03-01T16:30:52;9.00;99.90
11532;DHT22;5822;51.000;5.874;2023-03-01T16:33:18;9.00;99.90
11532;DHT22;5822;51.000;5.874;2023-03-01T16:35:43;8.90;99.90
11532;DHT22;5822;51.000;5.874;2023-03-01T16:38:10;8.90;99.90
11532;DHT22;5822;51.000;5.874;2023-03-01T16:40:35;8.90;99.90
11532;DHT22;5822;51.000;5.874;2023-03-01T16:43:01;8.90;99.90
11532;DHT22;5822;51.000;5.874;2023-03-01T16:45:29;8.80;99.90
11532;DHT22;5822;51.000;5.874;2023-03-01T16:47:58;8.80;99.90
11532;DHT22;5822;51.000;5.874;2023-03-01T16:50:24;8.80;99.90
11532;DHT22;5822;51.000;5.874;2023-03-01T16:52:49;8.80;99.90
11532;DHT22;5822;51.000;5.874;2023-03-01T16:55:15;8.80;99.90
11532;DHT22;5822;51.000;5.874;2023-03-01T16:57:41;8.70;99.90
11532;DHT22;5822;51.000;5.874;2023-03-01T17:00:08;8.70;99.90
11532;DHT22;5822;51.000;5.874;2023-03-01T17:02:38;8.70;99.90
11532;DHT22;5822;51.000;5.874;2023-03-01T17:05:05;8.70;99.90
11532;DHT22;5822;51.000;5.874;2023-03-01T17:07:32;8.60;99.90
11532;DHT22;5822;51.000;5.874;2023-03-01T17:09:59;8.50;99.90
11532;DHT22;5822;51.000;5.874;2023-03-01T17:12:25;8.50;99.90
11532;DHT22;5822;51.000;5.874;2023-03-01T17:14:50;8.50;99.90
11532;DHT22;5822;51.000;5.874;2023-03-01T17:17:16;8.50;99.90
11532;DHT22;5822;51.000;5.874;2023-03-01T17:19:42;8.50;99.90
11532;DHT22;5822;51.000;5.874;2023-03-01T17:22:09;8.40;99.90
11532;DHT22;5822;51.000;5.874;2023-03-01T17:24:37;8.40;99.90
11532;DHT22;5822;51.000;5.874;2023-03-01T17:27:03;8.40;99.90
11532;DHT22;5822;51.000;5.874;2023-03-01T17:29:30;8.40;99.90
11532;DHT22;5822;51.000;5.874;2023-03-01T17:31:55;8.30;99.90
11532;DHT22;5822;51.000;5.874;2023-03-01T17:34:22;8.30;99.90
11532;DHT22;5822;51.000;5.874;2023-03-01T17:36:48;8.30;99.90
11532;DHT22;5822;51.000;5.874;2023-03-01T17:39:15;8.30;99.90
11532;DHT22;5822;51.000;5.874;2023-03-01T17:41:41;8.20;99.90
11532;DHT22;5822;51.000;5.874;2023-03-01T17:44:07;8.20;99.90
11532;DHT22;5822;51.000;5.874;2023-03-01T17:46:33;8.20;99.90
11532;DHT22;5822;51.000;5.874;2023-03-01T17:48:58;8.10;99.90
11532;DHT22;5822;51.000;5.874;2023-03-01T17:51:24;8.00;99.90
11532;DHT22;5822;51.000;5.874;2023-03-01T17:53:50;7.90;99.90
11532;DHT22;5822;51.000;5.874;2023-03-01T17:56:15;8.00;99.90
11532;DHT22;5822;51.000;5.874;2023-03-01T17:58:41;8.00;99.90
11532;DHT22;5822;51.000;5.874;2023-03-01T18:01:12;8.00;99.90
11532;DHT22;5822;51.000;5.874;2023-03-01T18:03:39;7.90;99.90